createdAt,value
2022-12-09T00:01:19.392Z,0.66
2022-12-09T00:03:48.228Z,0.62
2022-12-09T00:06:20.822Z,0.53
2022-12-09T00:08:49.022Z,0.61
2022-12-09T00:11:17.624Z,0.57
2022-12-09T00:13:45.354Z,0.57
2022-12-09T00:16:15.204Z,0.63
2022-12-09T00:18:43.794Z,0.62
2022-12-09T00:21:20.478Z,0.73
2022-12-09T00:23:49.501Z,0.69
2022-12-09T00:26:18.823Z,0.68
2022-12-09T00:28:46.734Z,0.59
2022-12-09T00:31:16.268Z,0.64
2022-12-09T00:33:44.169Z,0.68
2022-12-09T00:36:14.486Z,0.68
2022-12-09T00:38:42.580Z,0.67
2022-12-09T00:41:10.924Z,0.69
2022-12-09T00:43:38.703Z,0.66
2022-12-09T00:46:07.002Z,0.67
2022-12-09T00:48:34.881Z,0.76
2022-12-09T00:51:03.297Z,0.75
2022-12-09T00:53:31.026Z,0.57
2022-12-09T00:55:58.717Z,0.77
2022-12-09T00:58:26.443Z,0.73
2022-12-09T01:00:54.785Z,0.53
2022-12-09T01:03:22.839Z,0.54
2022-12-09T01:05:50.546Z,0.61
2022-12-09T01:08:18.669Z,0.64
2022-12-09T01:10:47.019Z,0.61
2022-12-09T01:13:16.376Z,0.72
2022-12-09T01:15:44.613Z,0.75
2022-12-09T01:18:13.073Z,0.82
2022-12-09T01:20:41.027Z,0.73
2022-12-09T01:23:08.840Z,0.85
2022-12-09T01:25:39.459Z,0.82
2022-12-09T01:28:07.311Z,0.92
2022-12-09T01:30:34.930Z,0.87
2022-12-09T01:33:02.530Z,0.84
2022-12-09T01:35:30.125Z,0.85
2022-12-09T01:37:57.915Z,0.90
2022-12-09T01:40:25.749Z,0.99
2022-12-09T01:42:53.331Z,0.97
2022-12-09T01:45:20.881Z,1.00
2022-12-09T01:48:15.520Z,1.01
2022-12-09T01:50:46.290Z,0.96
2022-12-09T01:53:15.640Z,0.96
2022-12-09T01:55:43.828Z,1.06
2022-12-09T01:58:11.533Z,1.03
2022-12-09T02:00:39.357Z,1.08
2022-12-09T02:03:07.757Z,1.07
2022-12-09T02:05:36.442Z,1.11
2022-12-09T02:08:08.075Z,1.11
2022-12-09T02:10:41.040Z,1.07
2022-12-09T02:13:27.433Z,1.03
2022-12-09T02:15:58.960Z,1.15
2022-12-09T02:18:43.616Z,1.12
2022-12-09T02:21:19.408Z,1.05
2022-12-09T02:24:14.252Z,1.12
2022-12-09T02:27:04.510Z,1.12
2022-12-09T02:29:32.040Z,1.06
2022-12-09T02:32:16.443Z,1.14
2022-12-09T02:34:52.490Z,1.14
2022-12-09T02:37:32.855Z,1.18
2022-12-09T02:40:06.944Z,1.20
2022-12-09T02:42:37.323Z,1.21
2022-12-09T02:45:08.815Z,1.18
2022-12-09T02:47:42.050Z,1.23
2022-12-09T02:50:14.683Z,1.18
2022-12-09T02:52:43.516Z,1.20
2022-12-09T02:55:14.243Z,1.19
2022-12-09T02:57:41.939Z,1.10
2022-12-09T03:00:11.739Z,1.03
2022-12-09T03:02:44.882Z,0.98
2022-12-09T03:05:34.288Z,0.90
2022-12-09T03:08:20.529Z,0.84
2022-12-09T03:10:59.862Z,0.78
2022-12-09T03:13:37.741Z,0.64
2022-12-09T03:16:35.380Z,0.60
2022-12-09T03:19:19.833Z,0.60
2022-12-09T03:21:50.073Z,0.61
2022-12-09T03:24:22.746Z,0.64
2022-12-09T03:26:52.008Z,0.66
2022-12-09T03:29:24.398Z,0.66
2022-12-09T03:31:54.115Z,0.74
2022-12-09T03:34:26.775Z,0.81
2022-12-09T03:36:55.190Z,0.74
2022-12-09T03:39:30.131Z,0.77
2022-12-09T03:42:02.477Z,0.79
2022-12-09T03:44:39.115Z,0.82
2022-12-09T03:47:08.542Z,0.77
2022-12-09T03:49:37.832Z,0.69
2022-12-09T03:52:18.348Z,0.65
2022-12-09T03:54:48.548Z,0.75
2022-12-09T03:57:19.955Z,0.67
2022-12-09T04:00:02.142Z,0.64
2022-12-09T04:02:30.368Z,0.67
2022-12-09T04:04:58.153Z,0.70
2022-12-09T04:07:25.780Z,0.72
2022-12-09T04:09:53.472Z,0.72
2022-12-09T04:12:21.198Z,0.73
2022-12-09T04:14:49.103Z,0.71
2022-12-09T04:17:17.214Z,0.55
2022-12-09T04:19:45.083Z,0.67
2022-12-09T04:22:12.788Z,0.72
2022-12-09T04:24:40.547Z,0.80
2022-12-09T04:27:08.531Z,0.82
2022-12-09T04:29:36.441Z,0.66
2022-12-09T04:32:04.465Z,0.83
2022-12-09T04:34:34.194Z,0.78
2022-12-09T04:37:01.790Z,0.70
2022-12-09T04:39:29.267Z,0.63
2022-12-09T04:41:56.855Z,0.53
2022-12-09T04:44:24.467Z,0.38
2022-12-09T04:46:52.083Z,0.30
2022-12-09T04:49:19.861Z,0.15
2022-12-09T04:51:47.763Z,0.14
2022-12-09T04:54:15.473Z,0.03
2022-12-09T04:56:43.728Z,-0.01
2022-12-09T04:59:11.372Z,-0.03
2022-12-09T05:01:39.434Z,-0.07
2022-12-09T05:04:07.995Z,-0.15
2022-12-09T05:06:35.934Z,-0.18
2022-12-09T05:09:04.769Z,-0.22
2022-12-09T05:11:33.008Z,-0.27
2022-12-09T05:14:00.729Z,-0.29
2022-12-09T05:16:28.850Z,-0.30
2022-12-09T05:18:57.040Z,-0.32
2022-12-09T05:21:24.827Z,-0.32
2022-12-09T05:23:52.962Z,-0.33
2022-12-09T05:26:23.460Z,-0.38
2022-12-09T05:28:52.441Z,-0.47
2022-12-09T05:31:22.940Z,-0.49
2022-12-09T05:33:52.460Z,-0.55
2022-12-09T05:36:24.313Z,-0.63
2022-12-09T05:38:52.894Z,-0.71
2022-12-09T05:41:21.031Z,-0.78
2022-12-09T05:43:48.976Z,-0.73
2022-12-09T05:46:17.515Z,-0.72
2022-12-09T05:48:46.791Z,-0.64
2022-12-09T05:51:27.209Z,-0.61
2022-12-09T05:53:55.802Z,-0.57
2022-12-09T05:56:25.979Z,-0.55
2022-12-09T05:58:55.630Z,-0.53
2022-12-09T06:01:24.326Z,-0.55
2022-12-09T06:03:54.247Z,-0.57
2022-12-09T06:06:26.562Z,-0.56
2022-12-09T06:09:00.555Z,-0.58
2022-12-09T06:11:29.122Z,-0.56
2022-12-09T06:13:57.159Z,-0.55
2022-12-09T06:16:26.095Z,-0.53
2022-12-09T06:18:54.353Z,-0.48
2022-12-09T06:21:23.676Z,-0.41
2022-12-09T06:23:52.235Z,-0.38
2022-12-09T06:26:23.980Z,-0.35
2022-12-09T06:28:52.915Z,-0.31
2022-12-09T06:31:21.446Z,-0.34
2022-12-09T06:33:55.513Z,-0.37
2022-12-09T06:36:25.537Z,-0.34
2022-12-09T06:38:53.982Z,-0.32
2022-12-09T06:41:21.954Z,-0.31
2022-12-09T06:43:50.135Z,-0.46
2022-12-09T06:46:23.358Z,-0.52
2022-12-09T06:48:51.978Z,-0.61
2022-12-09T06:51:20.366Z,-0.64
2022-12-09T06:53:48.869Z,-0.73
2022-12-09T06:56:18.573Z,-0.75
2022-12-09T06:58:47.696Z,-0.84
2022-12-09T07:01:25.164Z,-0.94
2022-12-09T07:03:56.219Z,-0.94
2022-12-09T07:06:42.669Z,-0.94
2022-12-09T07:09:15.598Z,-0.93
2022-12-09T07:11:46.342Z,-0.89
2022-12-09T07:14:16.145Z,-0.93
2022-12-09T07:16:44.454Z,-0.88
2022-12-09T07:19:24.734Z,-0.91
2022-12-09T07:21:53.257Z,-0.88
2022-12-09T07:24:21.317Z,-0.96
2022-12-09T07:26:49.343Z,-0.89
2022-12-09T07:29:17.847Z,-0.72
2022-12-09T07:31:47.673Z,-0.57
2022-12-09T07:34:16.045Z,-0.49
2022-12-09T07:36:44.084Z,-0.54
2022-12-09T07:39:17.273Z,-0.42
2022-12-09T07:41:45.560Z,-0.41
2022-12-09T07:44:13.572Z,-0.27
2022-12-09T07:46:41.956Z,-0.21
2022-12-09T07:49:12.119Z,-0.17
2022-12-09T07:51:40.177Z,-0.15
2022-12-09T07:54:08.092Z,-0.09
2022-12-09T07:56:35.823Z,-0.05
2022-12-09T07:59:07.876Z,-0.01
2022-12-09T08:01:36.444Z,0.03
2022-12-09T08:04:06.638Z,0.07
2022-12-09T08:06:35.710Z,-0.04
2022-12-09T08:09:07.465Z,0.00
2022-12-09T08:11:36.145Z,0.03
2022-12-09T08:14:12.322Z,0.08
2022-12-09T08:16:41.962Z,0.12
2022-12-09T08:19:10.338Z,0.15
2022-12-09T08:21:39.019Z,0.17
2022-12-09T08:24:07.796Z,0.10
2022-12-09T08:26:37.566Z,0.13
2022-12-09T08:29:09.116Z,0.18
2022-12-09T08:31:41.724Z,0.23
2022-12-09T08:34:10.261Z,0.23
2022-12-09T08:36:39.176Z,0.31
2022-12-09T08:39:07.851Z,0.26
2022-12-09T08:41:38.427Z,0.28
2022-12-09T08:44:11.160Z,0.40
2022-12-09T08:46:41.760Z,0.47
2022-12-09T08:49:10.261Z,0.54
2022-12-09T08:51:38.923Z,0.54
2022-12-09T08:54:07.158Z,0.49
2022-12-09T08:56:35.401Z,0.43
2022-12-09T08:59:03.998Z,0.41
2022-12-09T09:01:35.597Z,0.40
2022-12-09T09:04:09.814Z,0.47
2022-12-09T09:06:39.783Z,0.45
2022-12-09T09:09:09.881Z,0.50
2022-12-09T09:11:38.523Z,0.51
2022-12-09T09:14:07.696Z,0.56
2022-12-09T09:16:36.459Z,0.61
2022-12-09T09:19:06.736Z,0.67
2022-12-09T09:21:35.609Z,0.69
2022-12-09T09:24:08.693Z,0.74
2022-12-09T09:26:36.870Z,0.88
2022-12-09T09:29:04.780Z,0.90
2022-12-09T09:31:32.698Z,1.02
2022-12-09T09:34:00.994Z,1.08
2022-12-09T09:36:28.993Z,1.18
2022-12-09T09:38:58.799Z,1.19
2022-12-09T09:41:45.466Z,1.19
2022-12-09T09:44:31.754Z,1.35
2022-12-09T09:47:02.091Z,1.32
2022-12-09T09:49:56.390Z,1.50
2022-12-09T09:52:27.467Z,1.68
2022-12-09T09:54:55.558Z,1.88
2022-12-09T09:57:26.942Z,1.78
2022-12-09T10:00:23.704Z,1.59
2022-12-09T10:02:55.863Z,1.53
2022-12-09T10:05:26.678Z,1.48
2022-12-09T10:08:05.128Z,1.49
2022-12-09T10:10:33.452Z,1.46
2022-12-09T10:13:23.015Z,1.38
2022-12-09T10:16:07.530Z,1.44
2022-12-09T10:18:42.473Z,1.41
2022-12-09T10:21:21.707Z,1.33
2022-12-09T10:23:50.810Z,1.49
2022-12-09T10:26:30.521Z,1.73
2022-12-09T10:29:45.210Z,1.67
2022-12-09T10:32:20.523Z,1.59
2022-12-09T10:34:49.687Z,1.51
2022-12-09T10:37:43.898Z,1.60
2022-12-09T10:40:12.470Z,1.56
2022-12-09T10:43:13.745Z,1.58
2022-12-09T10:46:17.368Z,1.54
2022-12-09T10:48:56.305Z,1.52
2022-12-09T10:51:28.949Z,1.59
2022-12-09T10:54:01.168Z,1.57
2022-12-09T10:56:29.230Z,1.57
2022-12-09T10:59:23.286Z,1.62
2022-12-09T11:01:57.137Z,1.68
2022-12-09T11:04:29.425Z,1.78
2022-12-09T11:07:06.250Z,1.61
2022-12-09T11:09:38.636Z,1.76
2022-12-09T11:12:15.980Z,1.87
2022-12-09T11:14:53.526Z,1.84
2022-12-09T11:17:26.028Z,1.78
2022-12-09T11:19:57.604Z,1.66
2022-12-09T11:22:31.848Z,1.62
2022-12-09T11:25:13.244Z,1.73
2022-12-09T11:27:55.402Z,1.57
2022-12-09T11:30:27.053Z,1.53
2022-12-09T11:33:07.914Z,1.62
2022-12-09T11:35:51.769Z,1.49
2022-12-09T11:38:31.769Z,1.51
2022-12-09T11:41:05.483Z,1.53
2022-12-09T11:43:36.721Z,1.50
2022-12-09T11:46:16.137Z,1.46
2022-12-09T11:48:53.434Z,1.55
2022-12-09T11:51:25.958Z,1.58
2022-12-09T11:54:03.289Z,1.57
2022-12-09T11:56:32.028Z,1.71
2022-12-09T11:59:15.329Z,1.67
2022-12-09T12:01:53.373Z,1.60
2022-12-09T12:04:49.496Z,1.56
2022-12-09T12:07:33.843Z,1.58
2022-12-09T12:10:03.669Z,1.49
2022-12-09T12:12:37.405Z,1.36
2022-12-09T12:15:19.564Z,1.38
2022-12-09T12:17:57.697Z,1.40
2022-12-09T12:21:09.983Z,1.52
2022-12-09T12:23:58.379Z,1.65
2022-12-09T12:26:52.379Z,1.59
2022-12-09T12:29:35.069Z,1.72
2022-12-09T12:32:09.414Z,1.75
2022-12-09T12:34:55.753Z,1.71
2022-12-09T12:38:04.766Z,1.70
2022-12-09T12:41:10.987Z,1.57
2022-12-09T12:44:28.619Z,1.57
2022-12-09T12:47:31.098Z,1.50
2022-12-09T12:50:07.913Z,1.58
2022-12-09T12:53:00.718Z,1.67
2022-12-09T12:55:55.992Z,1.61
2022-12-09T12:58:32.598Z,1.52
2022-12-09T13:01:14.512Z,1.60
2022-12-09T13:04:08.922Z,1.51
2022-12-09T13:07:29.688Z,1.37
2022-12-09T13:10:17.628Z,1.30
2022-12-09T13:13:09.605Z,1.40
2022-12-09T13:15:58.102Z,1.33
2022-12-09T13:18:40.928Z,1.42
2022-12-09T13:24:45.294Z,1.49
2022-12-09T13:27:40.891Z,1.51
2022-12-09T13:30:39.376Z,1.54
2022-12-09T13:33:30.107Z,1.68
2022-12-09T13:36:59.285Z,1.65
2022-12-09T13:39:42.320Z,1.47
2022-12-09T13:42:53.488Z,1.46
2022-12-09T13:45:35.074Z,1.46
2022-12-09T13:48:24.551Z,1.51
2022-12-09T13:50:54.269Z,1.49
2022-12-09T13:53:21.758Z,1.54
2022-12-09T13:56:03.263Z,1.47
2022-12-09T13:58:39.750Z,1.41
2022-12-09T14:01:13.072Z,1.32
2022-12-09T14:03:55.573Z,1.36
2022-12-09T14:06:30.134Z,1.42
2022-12-09T14:09:03.984Z,1.47
2022-12-09T14:11:43.650Z,1.50
2022-12-09T14:14:26.486Z,1.49
2022-12-09T14:16:59.496Z,1.35
2022-12-09T14:19:27.136Z,1.28
2022-12-09T14:22:19.845Z,1.28
2022-12-09T14:24:58.234Z,1.20
2022-12-09T14:27:27.217Z,1.10
2022-12-09T14:30:24.913Z,1.10
2022-12-09T14:32:55.214Z,1.01
2022-12-09T14:35:55.155Z,0.99
2022-12-09T14:39:22.555Z,0.96
2022-12-09T14:41:55.872Z,0.89
2022-12-09T14:44:23.435Z,0.86
2022-12-09T14:46:54.597Z,0.82
2022-12-09T14:49:29.880Z,0.77
2022-12-09T14:52:04.150Z,0.71
2022-12-09T14:54:44.397Z,0.70
2022-12-09T14:57:25.826Z,0.67
2022-12-09T14:59:57.126Z,0.64
2022-12-09T15:02:32.901Z,0.61
2022-12-09T15:05:03.167Z,0.59
2022-12-09T15:07:35.347Z,0.55
2022-12-09T15:10:08.603Z,0.48
2022-12-09T15:12:39.787Z,0.42
2022-12-09T15:15:16.571Z,0.41
2022-12-09T15:17:47.404Z,0.35
2022-12-09T15:20:25.946Z,0.35
2022-12-09T15:23:00.070Z,0.27
2022-12-09T15:25:28.623Z,0.18
2022-12-09T15:28:13.709Z,0.12
2022-12-09T15:30:41.642Z,0.02
2022-12-09T15:33:20.996Z,0.00
2022-12-09T15:36:00.319Z,-0.04
2022-12-09T15:38:37.359Z,-0.07
2022-12-09T15:41:27.588Z,-0.10
2022-12-09T15:43:59.145Z,-0.10
2022-12-09T15:46:28.663Z,-0.15
2022-12-09T15:48:59.596Z,-0.19
2022-12-09T15:51:29.705Z,-0.18
2022-12-09T15:54:06.193Z,-0.16
2022-12-09T15:56:48.693Z,-0.21
2022-12-09T15:59:24.853Z,-0.21
2022-12-09T16:01:56.846Z,-0.23
2022-12-09T16:04:29.481Z,-0.29
2022-12-09T16:06:58.418Z,-0.28
2022-12-09T16:09:27.159Z,-0.27
2022-12-09T16:11:56.583Z,-0.27
2022-12-09T16:14:25.798Z,-0.24
2022-12-09T16:17:00.612Z,-0.17
2022-12-09T16:19:34.316Z,-0.10
2022-12-09T16:22:30.041Z,-0.09
2022-12-09T16:25:16.035Z,-0.02
2022-12-09T16:27:49.937Z,0.01
2022-12-09T16:30:22.004Z,0.04
2022-12-09T16:32:54.487Z,0.10
2022-12-09T16:35:54.613Z,0.09
2022-12-09T16:38:22.884Z,0.16
2022-12-09T16:40:50.968Z,0.15
2022-12-09T16:43:19.150Z,0.14
2022-12-09T16:45:51.656Z,0.11
2022-12-09T16:48:21.432Z,0.06
2022-12-09T16:51:07.542Z,0.00
2022-12-09T16:53:41.131Z,-0.05
2022-12-09T16:56:20.664Z,-0.13
2022-12-09T16:58:48.846Z,-0.13
2022-12-09T17:01:19.682Z,-0.15
2022-12-09T17:03:53.889Z,-0.15
2022-12-09T17:06:22.268Z,-0.18
2022-12-09T17:08:50.746Z,-0.24
2022-12-09T17:11:21.695Z,-0.30
2022-12-09T17:13:52.739Z,-0.35
2022-12-09T17:16:22.295Z,-0.35
2022-12-09T17:18:50.476Z,-0.49
2022-12-09T17:21:18.603Z,-0.53
2022-12-09T17:23:46.293Z,-0.57
2022-12-09T17:26:16.079Z,-0.66
2022-12-09T17:28:45.048Z,-0.68
2022-12-09T17:31:15.815Z,-0.78
2022-12-09T17:33:44.643Z,-0.87
2022-12-09T17:36:14.081Z,-0.89
2022-12-09T17:38:42.456Z,-0.94
2022-12-09T17:41:14.764Z,-0.99
2022-12-09T17:43:43.111Z,-1.02
2022-12-09T17:46:11.672Z,-1.06
2022-12-09T17:48:40.195Z,-1.07
2022-12-09T17:51:12.686Z,-1.11
2022-12-09T17:53:40.998Z,-1.08
2022-12-09T17:56:10.499Z,-1.19
2022-12-09T17:58:38.225Z,-1.17
2022-12-09T18:01:06.629Z,-1.22
2022-12-09T18:03:54.790Z,-1.25
2022-12-09T18:06:21.798Z,-1.26
2022-12-09T18:08:49.388Z,-1.27
2022-12-09T18:11:17.148Z,-1.26
2022-12-09T18:13:44.720Z,-1.20
2022-12-09T18:16:13.824Z,-1.24
2022-12-09T18:18:42.948Z,-1.26
2022-12-09T18:21:15.547Z,-1.22
2022-12-09T18:23:43.692Z,-1.19
2022-12-09T18:26:15.142Z,-1.20
2022-12-09T18:28:43.541Z,-1.20
2022-12-09T18:31:15.474Z,-1.26
2022-12-09T18:33:44.619Z,-1.29
2022-12-09T18:36:15.876Z,-1.25
2022-12-09T18:38:44.665Z,-1.24
2022-12-09T18:41:25.101Z,-1.27
2022-12-09T18:43:55.336Z,-1.30
2022-12-09T18:46:26.292Z,-1.25
2022-12-09T18:49:08.875Z,-1.26
2022-12-09T18:51:37.462Z,-1.28
2022-12-09T18:54:06.862Z,-1.25
2022-12-09T18:56:36.193Z,-1.24
2022-12-09T18:59:07.125Z,-1.27
2022-12-09T19:01:39.623Z,-1.30
2022-12-09T19:04:10.009Z,-1.33
2022-12-09T19:06:40.242Z,-1.28
2022-12-09T19:09:16.914Z,-1.27
2022-12-09T19:11:46.440Z,-1.26
2022-12-09T19:14:15.527Z,-1.26
2022-12-09T19:16:44.601Z,-1.22
2022-12-09T19:19:18.103Z,-1.23
2022-12-09T19:21:47.196Z,-1.23
2022-12-09T19:24:18.140Z,-1.22
2022-12-09T19:26:46.532Z,-1.17
2022-12-09T19:29:16.147Z,-1.18
2022-12-09T19:31:46.965Z,-1.19
2022-12-09T19:34:23.846Z,-1.20
2022-12-09T19:36:53.652Z,-1.20
2022-12-09T19:39:24.491Z,-1.20
2022-12-09T19:41:52.987Z,-1.27
2022-12-09T19:44:44.488Z,-1.23
2022-12-09T19:47:10.948Z,-1.22
2022-12-09T19:49:41.568Z,-1.27
2022-12-09T19:52:09.642Z,-1.31
2022-12-09T19:54:37.712Z,-1.36
2022-12-09T19:57:05.683Z,-1.36
2022-12-09T19:59:35.539Z,-1.41
2022-12-09T20:02:03.501Z,-1.47
2022-12-09T20:04:49.598Z,-1.51
2022-12-09T20:07:18.754Z,-1.51
2022-12-09T20:09:46.836Z,-1.51
2022-12-09T20:12:15.004Z,-1.52
2022-12-09T20:14:43.377Z,-1.53
2022-12-09T20:17:11.574Z,-1.55
2022-12-09T20:19:39.734Z,-1.55
2022-12-09T20:22:07.798Z,-1.57
2022-12-09T20:24:36.008Z,-1.55
2022-12-09T20:27:03.954Z,-1.59
2022-12-09T20:29:37.272Z,-1.58
2022-12-09T20:32:05.719Z,-1.59
2022-12-09T20:34:33.720Z,-1.59
2022-12-09T20:37:01.870Z,-1.59
2022-12-09T20:39:29.971Z,-1.54
2022-12-09T20:41:59.454Z,-1.52
2022-12-09T20:44:27.431Z,-1.50
2022-12-09T20:46:55.498Z,-1.39
2022-12-09T20:49:26.769Z,-1.33
2022-12-09T20:51:56.042Z,-1.34
2022-12-09T20:54:24.579Z,-1.25
2022-12-09T20:56:53.229Z,-1.32
2022-12-09T20:59:21.384Z,-1.47
2022-12-09T21:01:49.453Z,-1.30
2022-12-09T21:04:18.034Z,-1.25
2022-12-09T21:06:45.627Z,-1.26
2022-12-09T21:09:19.976Z,-1.19
2022-12-09T21:11:48.880Z,-1.20
2022-12-09T21:14:19.182Z,-1.18
2022-12-09T21:16:50.228Z,-1.12
2022-12-09T21:19:25.164Z,-1.10
2022-12-09T21:21:53.539Z,-1.03
2022-12-09T21:24:23.148Z,-1.02
2022-12-09T21:26:53.106Z,-1.02
2022-12-09T21:29:22.301Z,-0.98
2022-12-09T21:31:54.330Z,-1.00
2022-12-09T21:34:24.184Z,-1.02
2022-12-09T21:36:52.116Z,-0.99
2022-12-09T21:39:20.370Z,-0.98
2022-12-09T21:41:48.066Z,-1.02
2022-12-09T21:44:19.035Z,-1.02
2022-12-09T21:46:47.147Z,-1.01
2022-12-09T21:49:15.503Z,-0.97
2022-12-09T21:51:44.059Z,-0.89
2022-12-09T21:54:11.757Z,-0.86
2022-12-09T21:56:39.361Z,-0.84
2022-12-09T21:59:08.243Z,-0.97
2022-12-09T22:01:38.859Z,-0.95
2022-12-09T22:04:08.297Z,-0.97
2022-12-09T22:06:35.957Z,-0.95
2022-12-09T22:09:04.730Z,-0.93
2022-12-09T22:11:36.325Z,-1.00
2022-12-09T22:14:04.564Z,-0.95
2022-12-09T22:16:36.174Z,-0.98
2022-12-09T22:19:08.047Z,-0.93
2022-12-09T22:21:37.395Z,-0.94
2022-12-09T22:24:07.620Z,-0.93
2022-12-09T22:26:35.219Z,-0.91
2022-12-09T22:29:04.370Z,-0.92
2022-12-09T22:31:35.340Z,-0.89
2022-12-09T22:34:06.553Z,-0.83
2022-12-09T22:36:36.817Z,-0.80
2022-12-09T22:39:07.802Z,-0.79
2022-12-09T22:41:35.930Z,-0.73
2022-12-09T22:44:04.731Z,-0.72
2022-12-09T22:46:34.731Z,-0.72
2022-12-09T22:49:04.869Z,-0.78
2022-12-09T22:51:35.368Z,-0.77
2022-12-09T22:54:05.952Z,-0.76
2022-12-09T22:56:34.213Z,-0.72
2022-12-09T22:59:02.024Z,-0.77
2022-12-09T23:01:32.885Z,-0.73
2022-12-09T23:04:01.569Z,-0.73
2022-12-09T23:06:30.856Z,-0.81
2022-12-09T23:08:58.955Z,-0.79
2022-12-09T23:11:28.409Z,-0.86
2022-12-09T23:13:56.464Z,-0.84
2022-12-09T23:16:26.577Z,-0.93
2022-12-09T23:18:56.715Z,-0.93
2022-12-09T23:21:30.502Z,-0.97
2022-12-09T23:24:01.160Z,-0.96
2022-12-09T23:26:31.707Z,-0.99
2022-12-09T23:29:01.911Z,-0.94
2022-12-09T23:31:32.480Z,-1.02
2022-12-09T23:34:01.310Z,-1.01
2022-12-09T23:36:32.512Z,-1.00
2022-12-09T23:39:01.908Z,-1.08
2022-12-09T23:41:30.363Z,-1.23
2022-12-09T23:43:58.417Z,-1.14
2022-12-09T23:46:28.076Z,-1.20
2022-12-09T23:48:56.351Z,-1.14
2022-12-09T23:51:29.729Z,-1.17
2022-12-09T23:54:00.192Z,-1.18
2022-12-09T23:56:29.843Z,-1.26
2022-12-09T23:58:59.901Z,-1.24
